sensor_id;sensor_type;location;lat;lon;timestamp;P1;durP1;ratioP1;P2;durP2;ratioP2
20828;SDS011;10575;50.124;8.582;2023-09-12T00:02:01;22.73;;;9.88;;
20828;SDS011;10575;50.124;8.582;2023-09-12T00:04:26;19.38;;;9.40;;
20828;SDS011;10575;50.124;8.582;2023-09-12T00:06:53;15.50;;;9.02;;
20828;SDS011;10575;50.124;8.582;2023-09-12T00:09:23;24.38;;;9.02;;
20828;SDS011;10575;50.124;8.582;2023-09-12T00:11:56;19.95;;;9.40;;
20828;SDS011;10575;50.124;8.582;2023-09-12T00:14:21;14.02;;;8.65;;
20828;SDS011;10575;50.124;8.582;2023-09-12T00:16:47;16.60;;;8.43;;
20828;SDS011;10575;50.124;8.582;2023-09-12T00:19:13;18.17;;;8.57;;
20828;SDS011;10575;50.124;8.582;2023-09-12T00:21:39;17.90;;;8.50;;
20828;SDS011;10575;50.124;8.582;2023-09-12T00:24:06;18.30;;;8.52;;
20828;SDS011;10575;50.124;8.582;2023-09-12T00:26:31;19.23;;;8.98;;
20828;SDS011;10575;50.124;8.582;2023-09-12T00:28:58;22.38;;;9.30;;
20828;SDS011;10575;50.124;8.582;2023-09-12T00:31:23;13.23;;;8.00;;
20828;SDS011;10575;50.124;8.582;2023-09-12T00:33:49;13.82;;;8.07;;
20828;SDS011;10575;50.124;8.582;2023-09-12T00:36:14;16.45;;;7.63;;
20828;SDS011;10575;50.124;8.582;2023-09-12T00:38:40;15.38;;;8.63;;
20828;SDS011;10575;50.124;8.582;2023-09-12T00:41:05;18.70;;;8.68;;
20828;SDS011;10575;50.124;8.582;2023-09-12T00:43:31;17.48;;;8.27;;
20828;SDS011;10575;50.124;8.582;2023-09-12T00:45:56;17.95;;;8.77;;
20828;SDS011;10575;50.124;8.582;2023-09-12T00:48:22;15.60;;;8.02;;
20828;SDS011;10575;50.124;8.582;2023-09-12T00:50:49;15.85;;;7.80;;
20828;SDS011;10575;50.124;8.582;2023-09-12T00:53:15;16.90;;;8.45;;
20828;SDS011;10575;50.124;8.582;2023-09-12T00:55:42;18.70;;;8.48;;
20828;SDS011;10575;50.124;8.582;2023-09-12T00:58:15;17.38;;;8.30;;
20828;SDS011;10575;50.124;8.582;2023-09-12T01:00:41;17.92;;;8.40;;
20828;SDS011;10575;50.124;8.582;2023-09-12T01:03:06;18.45;;;9.32;;
20828;SDS011;10575;50.124;8.582;2023-09-12T01:05:32;12.90;;;8.07;;
20828;SDS011;10575;50.124;8.582;2023-09-12T01:07:59;18.20;;;8.95;;
20828;SDS011;10575;50.124;8.582;2023-09-12T01:10:25;17.90;;;8.85;;
20828;SDS011;10575;50.124;8.582;2023-09-12T01:12:51;15.43;;;9.15;;
20828;SDS011;10575;50.124;8.582;2023-09-12T01:15:17;17.13;;;9.50;;
20828;SDS011;10575;50.124;8.582;2023-09-12T01:17:43;17.45;;;9.80;;
20828;SDS011;10575;50.124;8.582;2023-09-12T01:20:28;15.85;;;9.18;;
20828;SDS011;10575;50.124;8.582;2023-09-12T01:23:08;15.05;;;8.48;;
20828;SDS011;10575;50.124;8.582;2023-09-12T01:28:22;18.52;;;8.43;;
20828;SDS011;10575;50.124;8.582;2023-09-12T01:31:01;16.92;;;8.88;;
20828;SDS011;10575;50.124;8.582;2023-09-12T01:33:29;17.92;;;8.70;;
20828;SDS011;10575;50.124;8.582;2023-09-12T01:35:55;21.27;;;9.57;;
20828;SDS011;10575;50.124;8.582;2023-09-12T01:38:21;22.08;;;9.07;;
20828;SDS011;10575;50.124;8.582;2023-09-12T01:40:48;20.77;;;9.25;;
20828;SDS011;10575;50.124;8.582;2023-09-12T01:43:15;17.00;;;10.13;;
20828;SDS011;10575;50.124;8.582;2023-09-12T01:45:42;17.55;;;9.63;;
20828;SDS011;10575;50.124;8.582;2023-09-12T01:48:09;19.92;;;11.05;;
20828;SDS011;10575;50.124;8.582;2023-09-12T01:50:36;18.02;;;9.85;;
20828;SDS011;10575;50.124;8.582;2023-09-12T01:53:03;18.77;;;9.63;;
20828;SDS011;10575;50.124;8.582;2023-09-12T01:55:29;23.08;;;10.25;;
20828;SDS011;10575;50.124;8.582;2023-09-12T01:57:54;19.73;;;9.73;;
20828;SDS011;10575;50.124;8.582;2023-09-12T02:00:22;16.05;;;9.43;;
20828;SDS011;10575;50.124;8.582;2023-09-12T02:02:49;18.63;;;10.63;;
20828;SDS011;10575;50.124;8.582;2023-09-12T02:05:16;20.63;;;10.90;;
20828;SDS011;10575;50.124;8.582;2023-09-12T02:07:43;18.83;;;9.80;;
20828;SDS011;10575;50.124;8.582;2023-09-12T02:10:10;17.90;;;9.95;;
20828;SDS011;10575;50.124;8.582;2023-09-12T02:12:35;23.00;;;10.00;;
20828;SDS011;10575;50.124;8.582;2023-09-12T02:15:02;16.58;;;9.85;;
20828;SDS011;10575;50.124;8.582;2023-09-12T02:17:28;20.25;;;9.32;;
20828;SDS011;10575;50.124;8.582;2023-09-12T02:19:53;15.77;;;8.93;;
20828;SDS011;10575;50.124;8.582;2023-09-12T02:22:19;14.63;;;9.02;;
20828;SDS011;10575;50.124;8.582;2023-09-12T02:24:44;22.25;;;11.13;;
20828;SDS011;10575;50.124;8.582;2023-09-12T02:27:10;20.02;;;10.63;;
20828;SDS011;10575;50.124;8.582;2023-09-12T02:29:35;23.73;;;10.15;;
20828;SDS011;10575;50.124;8.582;2023-09-12T02:32:15;22.38;;;9.73;;
20828;SDS011;10575;50.124;8.582;2023-09-12T02:34:40;20.52;;;10.38;;
20828;SDS011;10575;50.124;8.582;2023-09-12T02:37:06;20.88;;;10.15;;
20828;SDS011;10575;50.124;8.582;2023-09-12T02:39:31;20.08;;;9.32;;
20828;SDS011;10575;50.124;8.582;2023-09-12T02:41:57;15.32;;;8.88;;
20828;SDS011;10575;50.124;8.582;2023-09-12T02:44:22;23.30;;;10.05;;
20828;SDS011;10575;50.124;8.582;2023-09-12T02:46:50;21.65;;;9.65;;
20828;SDS011;10575;50.124;8.582;2023-09-12T02:49:24;18.08;;;9.55;;
20828;SDS011;10575;50.124;8.582;2023-09-12T02:51:55;15.73;;;8.68;;
20828;SDS011;10575;50.124;8.582;2023-09-12T02:54:21;23.30;;;9.05;;
20828;SDS011;10575;50.124;8.582;2023-09-12T02:56:46;15.25;;;9.25;;
20828;SDS011;10575;50.124;8.582;2023-09-12T02:59:12;18.27;;;8.32;;
20828;SDS011;10575;50.124;8.582;2023-09-12T03:01:37;17.75;;;9.57;;
20828;SDS011;10575;50.124;8.582;2023-09-12T03:04:03;20.02;;;9.45;;
20828;SDS011;10575;50.124;8.582;2023-09-12T03:06:29;21.05;;;9.40;;
20828;SDS011;10575;50.124;8.582;2023-09-12T03:08:55;21.42;;;9.27;;
20828;SDS011;10575;50.124;8.582;2023-09-12T03:11:20;13.98;;;9.38;;
20828;SDS011;10575;50.124;8.582;2023-09-12T03:13:46;18.23;;;9.10;;
20828;SDS011;10575;50.124;8.582;2023-09-12T03:16:12;21.80;;;10.25;;
20828;SDS011;10575;50.124;8.582;2023-09-12T03:18:38;21.30;;;9.02;;
20828;SDS011;10575;50.124;8.582;2023-09-12T03:21:04;17.10;;;9.48;;
20828;SDS011;10575;50.124;8.582;2023-09-12T03:23:30;16.80;;;9.15;;
20828;SDS011;10575;50.124;8.582;2023-09-12T03:26:01;20.48;;;9.40;;
20828;SDS011;10575;50.124;8.582;2023-09-12T03:28:28;19.08;;;9.43;;
20828;SDS011;10575;50.124;8.582;2023-09-12T03:31:02;17.90;;;9.02;;
20828;SDS011;10575;50.124;8.582;2023-09-12T03:33:30;22.58;;;9.50;;
20828;SDS011;10575;50.124;8.582;2023-09-12T03:35:56;17.05;;;8.77;;
20828;SDS011;10575;50.124;8.582;2023-09-12T03:38:21;14.90;;;9.10;;
20828;SDS011;10575;50.124;8.582;2023-09-12T03:40:47;16.88;;;9.35;;
20828;SDS011;10575;50.124;8.582;2023-09-12T03:43:12;17.52;;;8.98;;
20828;SDS011;10575;50.124;8.582;2023-09-12T03:45:38;14.45;;;9.00;;
20828;SDS011;10575;50.124;8.582;2023-09-12T03:48:03;21.55;;;9.10;;
20828;SDS011;10575;50.124;8.582;2023-09-12T03:50:29;20.10;;;10.38;;
20828;SDS011;10575;50.124;8.582;2023-09-12T03:52:54;19.42;;;10.10;;
20828;SDS011;10575;50.124;8.582;2023-09-12T03:55:21;15.20;;;9.45;;
20828;SDS011;10575;50.124;8.582;2023-09-12T03:57:47;17.88;;;10.55;;
20828;SDS011;10575;50.124;8.582;2023-09-12T04:00:12;26.63;;;10.95;;
20828;SDS011;10575;50.124;8.582;2023-09-12T04:02:38;23.27;;;10.35;;
20828;SDS011;10575;50.124;8.582;2023-09-12T04:05:04;15.18;;;9.65;;
20828;SDS011;10575;50.124;8.582;2023-09-12T04:07:29;19.77;;;10.70;;
20828;SDS011;10575;50.124;8.582;2023-09-12T04:10:04;15.20;;;9.45;;
20828;SDS011;10575;50.124;8.582;2023-09-12T04:12:33;20.67;;;9.55;;
20828;SDS011;10575;50.124;8.582;2023-09-12T04:14:59;16.83;;;9.32;;
20828;SDS011;10575;50.124;8.582;2023-09-12T04:17:24;20.55;;;8.95;;
20828;SDS011;10575;50.124;8.582;2023-09-12T04:19:50;18.00;;;10.25;;
20828;SDS011;10575;50.124;8.582;2023-09-12T04:22:15;25.08;;;10.02;;
20828;SDS011;10575;50.124;8.582;2023-09-12T04:24:41;22.67;;;9.55;;
20828;SDS011;10575;50.124;8.582;2023-09-12T04:27:07;31.00;;;11.50;;
20828;SDS011;10575;50.124;8.582;2023-09-12T04:29:33;27.50;;;10.35;;
20828;SDS011;10575;50.124;8.582;2023-09-12T04:32:02;23.65;;;10.77;;
20828;SDS011;10575;50.124;8.582;2023-09-12T04:34:28;23.95;;;11.27;;
20828;SDS011;10575;50.124;8.582;2023-09-12T04:36:54;21.02;;;11.38;;
20828;SDS011;10575;50.124;8.582;2023-09-12T04:39:19;21.73;;;10.80;;
20828;SDS011;10575;50.124;8.582;2023-09-12T04:41:45;26.10;;;10.68;;
20828;SDS011;10575;50.124;8.582;2023-09-12T04:44:11;25.58;;;10.98;;
20828;SDS011;10575;50.124;8.582;2023-09-12T04:46:36;14.15;;;10.35;;
20828;SDS011;10575;50.124;8.582;2023-09-12T04:49:02;23.42;;;10.60;;
20828;SDS011;10575;50.124;8.582;2023-09-12T04:51:28;20.45;;;12.15;;
20828;SDS011;10575;50.124;8.582;2023-09-12T04:53:53;17.50;;;9.27;;
20828;SDS011;10575;50.124;8.582;2023-09-12T04:56:19;19.15;;;9.45;;
20828;SDS011;10575;50.124;8.582;2023-09-12T04:58:45;14.93;;;8.73;;
20828;SDS011;10575;50.124;8.582;2023-09-12T05:01:11;18.05;;;9.68;;
20828;SDS011;10575;50.124;8.582;2023-09-12T05:03:36;19.30;;;9.15;;
20828;SDS011;10575;50.124;8.582;2023-09-12T05:06:02;27.90;;;10.55;;
20828;SDS011;10575;50.124;8.582;2023-09-12T05:08:28;18.40;;;9.52;;
20828;SDS011;10575;50.124;8.582;2023-09-12T05:11:03;18.83;;;10.65;;
20828;SDS011;10575;50.124;8.582;2023-09-12T05:13:29;17.88;;;9.57;;
20828;SDS011;10575;50.124;8.582;2023-09-12T05:15:55;25.80;;;10.60;;
20828;SDS011;10575;50.124;8.582;2023-09-12T05:18:21;19.40;;;10.15;;
20828;SDS011;10575;50.124;8.582;2023-09-12T05:20:47;16.02;;;8.93;;
20828;SDS011;10575;50.124;8.582;2023-09-12T05:23:13;25.17;;;9.50;;
20828;SDS011;10575;50.124;8.582;2023-09-12T05:25:39;13.80;;;9.30;;
20828;SDS011;10575;50.124;8.582;2023-09-12T05:28:13;20.73;;;10.27;;
20828;SDS011;10575;50.124;8.582;2023-09-12T05:30:44;26.20;;;11.02;;
20828;SDS011;10575;50.124;8.582;2023-09-12T05:33:09;22.15;;;11.02;;
20828;SDS011;10575;50.124;8.582;2023-09-12T05:35:35;20.80;;;11.85;;
20828;SDS011;10575;50.124;8.582;2023-09-12T05:38:02;19.70;;;10.32;;
20828;SDS011;10575;50.124;8.582;2023-09-12T05:40:28;24.70;;;10.27;;
20828;SDS011;10575;50.124;8.582;2023-09-12T05:42:53;22.67;;;9.82;;
20828;SDS011;10575;50.124;8.582;2023-09-12T05:45:19;21.75;;;9.38;;
20828;SDS011;10575;50.124;8.582;2023-09-12T05:47:44;22.58;;;10.05;;
20828;SDS011;10575;50.124;8.582;2023-09-12T05:50:10;13.63;;;8.98;;
20828;SDS011;10575;50.124;8.582;2023-09-12T05:52:36;21.42;;;9.55;;
20828;SDS011;10575;50.124;8.582;2023-09-12T05:55:02;24.85;;;10.95;;
20828;SDS011;10575;50.124;8.582;2023-09-12T05:57:29;21.92;;;10.30;;
20828;SDS011;10575;50.124;8.582;2023-09-12T05:59:58;16.08;;;10.25;;
20828;SDS011;10575;50.124;8.582;2023-09-12T06:02:24;18.00;;;10.20;;
20828;SDS011;10575;50.124;8.582;2023-09-12T06:04:52;19.27;;;10.35;;
20828;SDS011;10575;50.124;8.582;2023-09-12T06:07:19;21.58;;;10.38;;
20828;SDS011;10575;50.124;8.582;2023-09-12T06:09:44;17.83;;;9.57;;
20828;SDS011;10575;50.124;8.582;2023-09-12T06:12:10;24.13;;;9.88;;
20828;SDS011;10575;50.124;8.582;2023-09-12T06:14:35;22.50;;;10.35;;
20828;SDS011;10575;50.124;8.582;2023-09-12T06:17:01;24.15;;;11.02;;
20828;SDS011;10575;50.124;8.582;2023-09-12T06:19:26;18.52;;;10.52;;
20828;SDS011;10575;50.124;8.582;2023-09-12T06:21:52;22.90;;;10.23;;
20828;SDS011;10575;50.124;8.582;2023-09-12T06:24:21;21.67;;;10.45;;
20828;SDS011;10575;50.124;8.582;2023-09-12T06:26:47;17.52;;;10.40;;
20828;SDS011;10575;50.124;8.582;2023-09-12T06:29:13;25.10;;;11.45;;
20828;SDS011;10575;50.124;8.582;2023-09-12T06:31:39;23.77;;;11.38;;
20828;SDS011;10575;50.124;8.582;2023-09-12T06:34:06;15.88;;;9.88;;
20828;SDS011;10575;50.124;8.582;2023-09-12T06:36:32;21.48;;;11.77;;
20828;SDS011;10575;50.124;8.582;2023-09-12T06:38:58;22.95;;;11.27;;
20828;SDS011;10575;50.124;8.582;2023-09-12T06:41:24;29.38;;;10.57;;
20828;SDS011;10575;50.124;8.582;2023-09-12T06:43:51;19.33;;;9.02;;
20828;SDS011;10575;50.124;8.582;2023-09-12T06:46:16;24.70;;;10.57;;
20828;SDS011;10575;50.124;8.582;2023-09-12T06:48:42;21.33;;;10.63;;
20828;SDS011;10575;50.124;8.582;2023-09-12T06:51:09;18.58;;;10.35;;
20828;SDS011;10575;50.124;8.582;2023-09-12T06:53:35;18.58;;;9.55;;
20828;SDS011;10575;50.124;8.582;2023-09-12T06:56:04;19.92;;;8.85;;
20828;SDS011;10575;50.124;8.582;2023-09-12T06:58:30;17.58;;;8.13;;
20828;SDS011;10575;50.124;8.582;2023-09-12T07:01:00;22.25;;;10.27;;
20828;SDS011;10575;50.124;8.582;2023-09-12T07:03:31;31.10;;;9.57;;
20828;SDS011;10575;50.124;8.582;2023-09-12T07:05:57;27.27;;;8.93;;
20828;SDS011;10575;50.124;8.582;2023-09-12T07:08:23;25.90;;;10.63;;
20828;SDS011;10575;50.124;8.582;2023-09-12T07:10:49;17.60;;;8.30;;
20828;SDS011;10575;50.124;8.582;2023-09-12T07:13:14;22.65;;;9.15;;
20828;SDS011;10575;50.124;8.582;2023-09-12T07:15:40;18.00;;;8.75;;
20828;SDS011;10575;50.124;8.582;2023-09-12T07:18:05;16.17;;;8.57;;
20828;SDS011;10575;50.124;8.582;2023-09-12T07:20:31;22.27;;;8.90;;
20828;SDS011;10575;50.124;8.582;2023-09-12T07:22:57;20.48;;;9.07;;
20828;SDS011;10575;50.124;8.582;2023-09-12T07:25:23;26.98;;;10.27;;
20828;SDS011;10575;50.124;8.582;2023-09-12T07:27:49;13.73;;;8.55;;
20828;SDS011;10575;50.124;8.582;2023-09-12T07:30:18;18.48;;;8.30;;
20828;SDS011;10575;50.124;8.582;2023-09-12T07:32:44;18.58;;;8.75;;
20828;SDS011;10575;50.124;8.582;2023-09-12T07:35:09;19.60;;;8.95;;
20828;SDS011;10575;50.124;8.582;2023-09-12T07:37:35;17.52;;;7.53;;
20828;SDS011;10575;50.124;8.582;2023-09-12T07:40:01;19.08;;;7.65;;
20828;SDS011;10575;50.124;8.582;2023-09-12T07:42:31;21.15;;;7.43;;
20828;SDS011;10575;50.124;8.582;2023-09-12T07:44:57;15.50;;;6.53;;
20828;SDS011;10575;50.124;8.582;2023-09-12T07:47:23;18.52;;;7.75;;
20828;SDS011;10575;50.124;8.582;2023-09-12T07:49:54;13.50;;;8.13;;
20828;SDS011;10575;50.124;8.582;2023-09-12T07:52:20;18.13;;;7.00;;
20828;SDS011;10575;50.124;8.582;2023-09-12T07:54:46;21.92;;;7.85;;
20828;SDS011;10575;50.124;8.582;2023-09-12T07:57:11;13.18;;;6.65;;
20828;SDS011;10575;50.124;8.582;2023-09-12T07:59:37;19.38;;;7.32;;
20828;SDS011;10575;50.124;8.582;2023-09-12T08:02:03;15.40;;;7.45;;
20828;SDS011;10575;50.124;8.582;2023-09-12T08:04:29;14.02;;;6.97;;
20828;SDS011;10575;50.124;8.582;2023-09-12T08:06:54;12.35;;;6.40;;
20828;SDS011;10575;50.124;8.582;2023-09-12T08:09:20;19.30;;;7.32;;
20828;SDS011;10575;50.124;8.582;2023-09-12T08:11:45;15.35;;;6.20;;
20828;SDS011;10575;50.124;8.582;2023-09-12T08:14:11;11.00;;;5.88;;
20828;SDS011;10575;50.124;8.582;2023-09-12T08:16:36;15.43;;;5.97;;
20828;SDS011;10575;50.124;8.582;2023-09-12T08:19:03;14.68;;;6.78;;
20828;SDS011;10575;50.124;8.582;2023-09-12T08:21:29;15.70;;;5.53;;
20828;SDS011;10575;50.124;8.582;2023-09-12T08:23:55;10.95;;;6.38;;
20828;SDS011;10575;50.124;8.582;2023-09-12T08:26:20;14.95;;;7.47;;
20828;SDS011;10575;50.124;8.582;2023-09-12T08:28:46;11.77;;;6.15;;
20828;SDS011;10575;50.124;8.582;2023-09-12T08:31:11;16.60;;;7.30;;
20828;SDS011;10575;50.124;8.582;2023-09-12T08:33:37;17.48;;;6.68;;
20828;SDS011;10575;50.124;8.582;2023-09-12T08:36:02;12.05;;;5.97;;
20828;SDS011;10575;50.124;8.582;2023-09-12T08:38:28;10.07;;;6.57;;
20828;SDS011;10575;50.124;8.582;2023-09-12T08:40:53;18.92;;;6.22;;
20828;SDS011;10575;50.124;8.582;2023-09-12T08:43:20;11.82;;;7.65;;
20828;SDS011;10575;50.124;8.582;2023-09-12T08:45:45;13.55;;;6.57;;
20828;SDS011;10575;50.124;8.582;2023-09-12T08:48:12;9.70;;;6.20;;
20828;SDS011;10575;50.124;8.582;2023-09-12T08:50:38;16.00;;;6.22;;
20828;SDS011;10575;50.124;8.582;2023-09-12T08:53:04;10.25;;;5.93;;
20828;SDS011;10575;50.124;8.582;2023-09-12T08:55:31;15.70;;;6.97;;
20828;SDS011;10575;50.124;8.582;2023-09-12T08:58:03;10.52;;;6.13;;
20828;SDS011;10575;50.124;8.582;2023-09-12T09:00:29;15.82;;;6.45;;
20828;SDS011;10575;50.124;8.582;2023-09-12T09:02:55;8.93;;;5.25;;
20828;SDS011;10575;50.124;8.582;2023-09-12T09:13:08;14.00;;;5.82;;
20828;SDS011;10575;50.124;8.582;2023-09-12T09:15:34;16.17;;;6.93;;
20828;SDS011;10575;50.124;8.582;2023-09-12T09:18:02;11.90;;;6.55;;
20828;SDS011;10575;50.124;8.582;2023-09-12T09:20:29;12.70;;;5.97;;
20828;SDS011;10575;50.124;8.582;2023-09-12T09:25:34;17.23;;;6.55;;
20828;SDS011;10575;50.124;8.582;2023-09-12T09:28:19;19.90;;;6.22;;
20828;SDS011;10575;50.124;8.582;2023-09-12T09:30:48;14.75;;;6.50;;
20828;SDS011;10575;50.124;8.582;2023-09-12T09:33:19;15.40;;;6.30;;
20828;SDS011;10575;50.124;8.582;2023-09-12T09:35:45;14.63;;;7.97;;
20828;SDS011;10575;50.124;8.582;2023-09-12T09:38:12;14.40;;;6.45;;
20828;SDS011;10575;50.124;8.582;2023-09-12T09:40:41;17.27;;;7.50;;
20828;SDS011;10575;50.124;8.582;2023-09-12T09:43:08;19.95;;;7.35;;
20828;SDS011;10575;50.124;8.582;2023-09-12T09:45:41;9.70;;;6.65;;
20828;SDS011;10575;50.124;8.582;2023-09-12T09:48:13;16.25;;;6.53;;
20828;SDS011;10575;50.124;8.582;2023-09-12T09:50:46;13.10;;;6.55;;
20828;SDS011;10575;50.124;8.582;2023-09-12T09:53:12;19.80;;;6.75;;
20828;SDS011;10575;50.124;8.582;2023-09-12T09:55:37;13.07;;;6.60;;
20828;SDS011;10575;50.124;8.582;2023-09-12T09:58:06;13.85;;;8.13;;
20828;SDS011;10575;50.124;8.582;2023-09-12T10:00:33;20.38;;;7.65;;
20828;SDS011;10575;50.124;8.582;2023-09-12T10:03:01;17.90;;;7.93;;
20828;SDS011;10575;50.124;8.582;2023-09-12T10:05:29;12.98;;;7.47;;
20828;SDS011;10575;50.124;8.582;2023-09-12T10:07:57;15.10;;;7.82;;
20828;SDS011;10575;50.124;8.582;2023-09-12T10:10:24;16.63;;;7.50;;
20828;SDS011;10575;50.124;8.582;2023-09-12T10:12:57;13.27;;;6.70;;
20828;SDS011;10575;50.124;8.582;2023-09-12T10:17:59;17.35;;;7.22;;
20828;SDS011;10575;50.124;8.582;2023-09-12T10:20:38;12.32;;;7.07;;
20828;SDS011;10575;50.124;8.582;2023-09-12T10:23:19;12.80;;;6.90;;
20828;SDS011;10575;50.124;8.582;2023-09-12T10:25:55;16.50;;;7.25;;
20828;SDS011;10575;50.124;8.582;2023-09-12T10:28:23;12.77;;;7.78;;
20828;SDS011;10575;50.124;8.582;2023-09-12T10:30:51;14.10;;;6.95;;
20828;SDS011;10575;50.124;8.582;2023-09-12T10:33:18;15.15;;;7.10;;
20828;SDS011;10575;50.124;8.582;2023-09-12T10:35:44;18.80;;;7.50;;
20828;SDS011;10575;50.124;8.582;2023-09-12T10:38:11;17.55;;;7.00;;
20828;SDS011;10575;50.124;8.582;2023-09-12T10:40:39;15.65;;;7.05;;
20828;SDS011;10575;50.124;8.582;2023-09-12T10:43:05;15.82;;;7.22;;
20828;SDS011;10575;50.124;8.582;2023-09-12T10:45:35;10.38;;;6.50;;
20828;SDS011;10575;50.124;8.582;2023-09-12T10:48:02;17.88;;;7.82;;
20828;SDS011;10575;50.124;8.582;2023-09-12T10:50:28;15.73;;;6.95;;
20828;SDS011;10575;50.124;8.582;2023-09-12T10:52:54;21.17;;;7.75;;
20828;SDS011;10575;50.124;8.582;2023-09-12T10:55:19;16.55;;;7.50;;
20828;SDS011;10575;50.124;8.582;2023-09-12T10:58:01;12.48;;;7.18;;
20828;SDS011;10575;50.124;8.582;2023-09-12T11:00:30;11.80;;;7.13;;
20828;SDS011;10575;50.124;8.582;2023-09-12T11:02:59;17.23;;;7.32;;
20828;SDS011;10575;50.124;8.582;2023-09-12T11:05:54;20.23;;;7.15;;
20828;SDS011;10575;50.124;8.582;2023-09-12T11:08:21;17.00;;;8.32;;
20828;SDS011;10575;50.124;8.582;2023-09-12T11:14:02;22.70;;;7.78;;
20828;SDS011;10575;50.124;8.582;2023-09-12T11:16:28;17.17;;;7.95;;
20828;SDS011;10575;50.124;8.582;2023-09-12T11:21:45;12.15;;;7.13;;
20828;SDS011;10575;50.124;8.582;2023-09-12T11:24:12;17.27;;;7.20;;
20828;SDS011;10575;50.124;8.582;2023-09-12T11:26:52;12.43;;;7.32;;
20828;SDS011;10575;50.124;8.582;2023-09-12T11:29:26;15.48;;;7.20;;
20828;SDS011;10575;50.124;8.582;2023-09-12T11:32:00;13.32;;;7.25;;
20828;SDS011;10575;50.124;8.582;2023-09-12T11:34:28;10.80;;;6.65;;
20828;SDS011;10575;50.124;8.582;2023-09-12T11:36:55;14.48;;;7.50;;
20828;SDS011;10575;50.124;8.582;2023-09-12T11:39:24;14.52;;;8.05;;
20828;SDS011;10575;50.124;8.582;2023-09-12T11:41:53;13.30;;;7.40;;
20828;SDS011;10575;50.124;8.582;2023-09-12T11:44:21;10.15;;;6.50;;
20828;SDS011;10575;50.124;8.582;2023-09-12T11:46:49;14.73;;;7.45;;
20828;SDS011;10575;50.124;8.582;2023-09-12T11:49:15;18.83;;;7.60;;
20828;SDS011;10575;50.124;8.582;2023-09-12T11:51:48;18.10;;;7.35;;
20828;SDS011;10575;50.124;8.582;2023-09-12T11:54:24;12.25;;;7.35;;
20828;SDS011;10575;50.124;8.582;2023-09-12T11:56:50;14.85;;;7.50;;
20828;SDS011;10575;50.124;8.582;2023-09-12T11:59:22;11.93;;;7.50;;
20828;SDS011;10575;50.124;8.582;2023-09-12T12:01:48;15.20;;;7.03;;
20828;SDS011;10575;50.124;8.582;2023-09-12T12:04:14;16.70;;;8.40;;
20828;SDS011;10575;50.124;8.582;2023-09-12T12:06:40;15.85;;;7.95;;
20828;SDS011;10575;50.124;8.582;2023-09-12T12:09:06;15.00;;;8.02;;
20828;SDS011;10575;50.124;8.582;2023-09-12T12:11:32;18.30;;;8.05;;
20828;SDS011;10575;50.124;8.582;2023-09-12T12:13:57;15.25;;;7.75;;
20828;SDS011;10575;50.124;8.582;2023-09-12T12:16:25;13.60;;;8.05;;
20828;SDS011;10575;50.124;8.582;2023-09-12T12:18:53;18.27;;;8.05;;
20828;SDS011;10575;50.124;8.582;2023-09-12T12:21:21;14.93;;;8.35;;
20828;SDS011;10575;50.124;8.582;2023-09-12T12:23:46;14.88;;;8.30;;
20828;SDS011;10575;50.124;8.582;2023-09-12T12:26:21;11.85;;;7.47;;
20828;SDS011;10575;50.124;8.582;2023-09-12T12:28:49;13.93;;;7.35;;
20828;SDS011;10575;50.124;8.582;2023-09-12T12:31:14;15.73;;;8.18;;
20828;SDS011;10575;50.124;8.582;2023-09-12T12:33:40;14.38;;;7.70;;
20828;SDS011;10575;50.124;8.582;2023-09-12T12:36:12;14.43;;;7.88;;
20828;SDS011;10575;50.124;8.582;2023-09-12T12:38:38;14.07;;;7.63;;
20828;SDS011;10575;50.124;8.582;2023-09-12T12:41:08;13.23;;;8.10;;
20828;SDS011;10575;50.124;8.582;2023-09-12T12:43:34;15.30;;;7.82;;
20828;SDS011;10575;50.124;8.582;2023-09-12T12:46:00;15.60;;;8.13;;
20828;SDS011;10575;50.124;8.582;2023-09-12T12:48:33;14.48;;;8.82;;
20828;SDS011;10575;50.124;8.582;2023-09-12T12:51:14;16.67;;;8.98;;
20828;SDS011;10575;50.124;8.582;2023-09-12T12:53:47;14.15;;;9.32;;
20828;SDS011;10575;50.124;8.582;2023-09-12T12:56:16;15.15;;;8.52;;
20828;SDS011;10575;50.124;8.582;2023-09-12T12:59:03;16.27;;;8.82;;
20828;SDS011;10575;50.124;8.582;2023-09-12T13:01:32;11.95;;;8.70;;
20828;SDS011;10575;50.124;8.582;2023-09-12T13:03:59;14.60;;;8.45;;
20828;SDS011;10575;50.124;8.582;2023-09-12T13:06:25;16.00;;;9.00;;
20828;SDS011;10575;50.124;8.582;2023-09-12T13:08:53;16.80;;;8.80;;
20828;SDS011;10575;50.124;8.582;2023-09-12T13:11:18;23.23;;;9.65;;
20828;SDS011;10575;50.124;8.582;2023-09-12T13:13:44;14.98;;;8.60;;
20828;SDS011;10575;50.124;8.582;2023-09-12T13:16:13;19.75;;;8.80;;
20828;SDS011;10575;50.124;8.582;2023-09-12T13:18:40;13.43;;;8.25;;
20828;SDS011;10575;50.124;8.582;2023-09-12T13:21:06;13.73;;;8.90;;
20828;SDS011;10575;50.124;8.582;2023-09-12T13:23:36;13.50;;;8.80;;
20828;SDS011;10575;50.124;8.582;2023-09-12T13:26:02;15.93;;;9.05;;
20828;SDS011;10575;50.124;8.582;2023-09-12T13:28:29;13.15;;;8.18;;
20828;SDS011;10575;50.124;8.582;2023-09-12T13:30:55;15.63;;;9.30;;
20828;SDS011;10575;50.124;8.582;2023-09-12T13:33:21;15.55;;;8.18;;
20828;SDS011;10575;50.124;8.582;2023-09-12T13:35:48;16.05;;;8.38;;
20828;SDS011;10575;50.124;8.582;2023-09-12T13:38:14;17.45;;;9.00;;
20828;SDS011;10575;50.124;8.582;2023-09-12T13:40:43;14.07;;;8.15;;
20828;SDS011;10575;50.124;8.582;2023-09-12T13:43:10;18.48;;;8.57;;
20828;SDS011;10575;50.124;8.582;2023-09-12T13:45:35;18.42;;;8.55;;
20828;SDS011;10575;50.124;8.582;2023-09-12T13:48:02;15.43;;;8.60;;
20828;SDS011;10575;50.124;8.582;2023-09-12T13:50:28;13.02;;;8.45;;
20828;SDS011;10575;50.124;8.582;2023-09-12T13:52:54;13.68;;;8.82;;
20828;SDS011;10575;50.124;8.582;2023-09-12T13:55:21;17.05;;;9.15;;
20828;SDS011;10575;50.124;8.582;2023-09-12T13:57:47;16.55;;;8.05;;
20828;SDS011;10575;50.124;8.582;2023-09-12T14:00:12;15.00;;;9.00;;
20828;SDS011;10575;50.124;8.582;2023-09-12T14:02:38;13.85;;;8.43;;
20828;SDS011;10575;50.124;8.582;2023-09-12T14:05:03;15.13;;;9.40;;
20828;SDS011;10575;50.124;8.582;2023-09-12T14:07:29;13.85;;;9.20;;
20828;SDS011;10575;50.124;8.582;2023-09-12T14:09:55;17.27;;;8.75;;
20828;SDS011;10575;50.124;8.582;2023-09-12T14:12:22;14.32;;;9.23;;
20828;SDS011;10575;50.124;8.582;2023-09-12T14:14:48;15.50;;;8.77;;
20828;SDS011;10575;50.124;8.582;2023-09-12T14:17:14;14.88;;;9.30;;
20828;SDS011;10575;50.124;8.582;2023-09-12T14:19:39;13.82;;;8.63;;
20828;SDS011;10575;50.124;8.582;2023-09-12T14:22:05;20.65;;;9.60;;
20828;SDS011;10575;50.124;8.582;2023-09-12T14:24:30;15.48;;;8.63;;
20828;SDS011;10575;50.124;8.582;2023-09-12T14:26:56;14.85;;;8.43;;
20828;SDS011;10575;50.124;8.582;2023-09-12T14:29:22;16.80;;;9.20;;
20828;SDS011;10575;50.124;8.582;2023-09-12T14:31:49;12.07;;;8.45;;
20828;SDS011;10575;50.124;8.582;2023-09-12T14:34:18;11.00;;;8.85;;
20828;SDS011;10575;50.124;8.582;2023-09-12T14:36:44;18.42;;;9.30;;
20828;SDS011;10575;50.124;8.582;2023-09-12T14:39:12;11.80;;;7.65;;
20828;SDS011;10575;50.124;8.582;2023-09-12T14:41:39;15.20;;;8.88;;
20828;SDS011;10575;50.124;8.582;2023-09-12T14:44:05;14.07;;;9.05;;
20828;SDS011;10575;50.124;8.582;2023-09-12T14:46:31;13.95;;;9.13;;
20828;SDS011;10575;50.124;8.582;2023-09-12T14:48:56;16.08;;;8.55;;
20828;SDS011;10575;50.124;8.582;2023-09-12T14:51:22;19.88;;;9.07;;
20828;SDS011;10575;50.124;8.582;2023-09-12T14:53:48;17.42;;;8.63;;
20828;SDS011;10575;50.124;8.582;2023-09-12T14:56:13;16.90;;;8.52;;